Time;durP1;ratioP1;P1;durP2;ratioP2;P2;SDS_P1;SDS_P2;PMS_P1;PMS_P2;Temp;Humidity;BMP_temperature;BMP_pressure;BME280_temperature;BME280_humidity;BME280_pressure;Samples;Min_cycle;Max_cycle;Signal;HPM_P1;HPM_P2
2021/08/20 08:20:45;;;;;;;9.50;4.03;;;19.20;99.90;;;;;;12199900;27;20418;-77
2021/08/20 08:26:35;;;;;;;12.98;4.32;;;21.00;99.90;;;;;;12159876;27;20051;-78
2021/08/20 08:32:23;;;;;;;8.57;3.70;;;21.30;99.90;;;;;;12124956;28;20201;-76
2021/08/20 08:38:13;;;;;;;6.30;3.63;;;21.60;99.90;;;;;;12122693;28;20171;-77
2021/08/20 08:44:00;;;;;;;7.72;3.47;;;21.80;99.90;;;;;;12122470;28;20044;-76
2021/08/20 08:49:49;;;;;;;9.07;4.70;;;22.00;99.90;;;;;;12126718;28;20055;-76
2021/08/20 08:55:40;;;;;;;15.52;4.90;;;22.20;99.90;;;;;;12123554;28;20044;-76
2021/08/20 09:01:29;;;;;;;13.90;4.25;;;22.30;99.50;;;;;;12108033;28;20059;-77
2021/08/20 09:07:18;;;;;;;10.75;4.43;;;22.40;99.10;;;;;;12120331;28;20189;-76
2021/08/20 09:13:07;;;;;;;10.93;3.65;;;22.50;98.80;;;;;;12123984;28;20052;-76
2021/08/20 09:19:10;;;;;;;9.02;3.65;;;22.60;98.50;;;;;;12087138;28;20056;-76
2021/08/20 09:24:57;;;;;;;13.05;3.67;;;22.60;98.30;;;;;;12085674;28;20083;-76
2021/08/20 09:31:02;;;;;;;8.75;3.90;;;22.80;98.00;;;;;;12086737;28;20810;-77
2021/08/20 09:36:51;;;;;;;9.52;3.80;;;22.90;97.80;;;;;;12089803;28;20059;-76
2021/08/20 09:42:39;;;;;;;9.98;3.90;;;23.10;97.30;;;;;;12088355;28;20052;-76
2021/08/20 09:48:52;;;;;;;6.00;3.05;;;23.20;97.10;;;;;;12092757;28;20051;-75
2021/08/20 09:54:42;;;;;;;4.55;3.05;;;23.40;96.70;;;;;;12069121;28;20085;-77
2021/08/20 10:00:32;;;;;;;8.98;3.35;;;23.60;96.20;;;;;;12088302;28;20139;-76
2021/08/20 10:06:22;;;;;;;7.20;3.22;;;23.80;95.80;;;;;;12090313;28;20063;-76
2021/08/20 10:12:11;;;;;;;12.00;2.72;;;23.90;95.30;;;;;;12089307;28;20074;-76
2021/08/20 10:18:00;;;;;;;7.90;2.45;;;24.00;94.40;;;;;;12088163;28;20044;-75
2021/08/20 10:23:49;;;;;;;3.85;2.10;;;24.20;93.90;;;;;;12074489;28;20056;-76
2021/08/20 10:29:41;;;;;;;6.13;2.47;;;24.30;92.60;;;;;;12088562;28;20670;-76
2021/08/20 10:35:51;;;;;;;5.85;2.25;;;24.40;92.50;;;;;;12088466;28;20062;-76
2021/08/20 10:42:04;;;;;;;4.72;2.30;;;24.50;91.20;;;;;;12088990;28;20063;-75
2021/08/20 10:48:16;;;;;;;4.90;2.58;;;24.40;90.80;;;;;;12072375;28;20214;-76
2021/08/20 10:54:03;;;;;;;2.85;2.10;;;24.50;91.20;;;;;;12090091;28;20089;-78
2021/08/20 10:59:57;;;;;;;1.70;1.60;;;24.70;88.60;;;;;;12091557;28;20040;-75
2021/08/20 11:05:49;;;;;;;3.13;2.10;;;24.80;87.90;;;;;;12092033;28;20739;-76
2021/08/20 11:12:06;;;;;;;2.25;1.85;;;25.00;85.10;;;;;;12075824;28;20060;-77
2021/08/20 11:17:59;;;;;;;3.40;1.80;;;25.00;86.60;;;;;;12090597;28;20059;-76
2021/08/20 11:23:45;;;;;;;1.80;1.70;;;25.10;82.90;;;;;;12089592;28;20051;-77
2021/08/20 11:29:32;;;;;;;2.55;1.73;;;25.00;82.80;;;;;;12092994;28;20043;-77
2021/08/20 11:35:30;;;;;;;4.20;1.58;;;25.20;83.00;;;;;;12086917;28;20044;-76
2021/08/20 11:41:21;;;;;;;2.50;1.77;;;25.30;83.00;;;;;;12091994;28;20063;-77
2021/08/20 11:47:08;;;;;;;4.22;2.60;;;25.20;81.70;;;;;;12097595;28;20048;-77
2021/08/20 11:52:57;;;;;;;3.33;1.80;;;25.20;83.90;;;;;;12087830;28;20063;-77
2021/08/20 11:58:45;;;;;;;4.03;1.70;;;25.20;82.40;;;;;;12089213;28;20055;-76
2021/08/20 12:04:35;;;;;;;3.72;1.67;;;25.20;82.10;;;;;;12086916;28;20059;-78
2021/08/20 12:10:24;;;;;;;7.25;2.17;;;25.30;81.80;;;;;;12086069;28;20052;-78
2021/08/20 12:16:12;;;;;;;2.45;1.77;;;25.40;81.20;;;;;;12087682;28;20466;-77
2021/08/20 12:22:08;;;;;;;3.20;1.75;;;25.40;79.80;;;;;;12090378;28;20535;-76
2021/08/20 12:28:10;;;;;;;3.17;2.10;;;25.30;81.20;;;;;;12089389;28;20044;-76
2021/08/20 12:33:58;;;;;;;2.38;2.03;;;25.40;80.70;;;;;;12085041;28;20523;-76
2021/08/20 12:39:45;;;;;;;2.90;1.58;;;25.50;78.80;;;;;;12085537;28;20055;-77
2021/08/20 12:45:36;;;;;;;5.82;1.73;;;25.60;77.80;;;;;;12089817;28;20051;-77
2021/08/20 12:51:24;;;;;;;3.25;2.00;;;25.60;78.50;;;;;;12090854;28;20063;-76
2021/08/20 12:57:11;;;;;;;3.72;1.70;;;25.70;78.00;;;;;;12095616;28;20504;-77
2021/08/20 13:02:59;;;;;;;2.03;1.75;;;26.00;77.30;;;;;;12096409;28;20047;-75
2021/08/20 13:08:49;;;;;;;2.67;1.90;;;26.30;75.20;;;;;;12091231;28;20063;-76
2021/08/20 13:14:37;;;;;;;4.50;2.00;;;26.50;74.20;;;;;;12094141;28;20074;-78
2021/08/20 13:20:25;;;;;;;3.20;1.50;;;26.60;75.00;;;;;;12106320;28;20052;-77
2021/08/20 13:26:12;;;;;;;5.85;1.80;;;26.30;75.70;;;;;;12094409;28;20054;-76
2021/08/20 13:32:00;;;;;;;2.60;1.80;;;26.00;76.80;;;;;;12078596;28;20044;-75
2021/08/20 13:37:49;;;;;;;3.97;1.58;;;25.90;79.10;;;;;;12090300;28;20048;-78
2021/08/20 13:43:36;;;;;;;2.25;1.58;;;26.00;77.70;;;;;;12095807;28;20044;-77
2021/08/20 13:49:23;;;;;;;2.35;1.60;;;26.00;76.90;;;;;;12091880;28;20143;-78
2021/08/20 13:55:12;;;;;;;4.40;1.90;;;26.20;76.90;;;;;;12091933;28;20567;-77
2021/08/20 14:00:59;;;;;;;5.47;1.70;;;26.60;75.30;;;;;;12102431;28;20047;-77
2021/08/20 14:06:46;;;;;;;2.17;1.77;;;27.00;73.10;;;;;;12117263;28;20702;-79
2021/08/20 14:12:35;;;;;;;2.75;1.70;;;27.20;73.30;;;;;;12097425;28;20051;-80
2021/08/20 14:18:22;;;;;;;4.97;1.73;;;27.40;71.70;;;;;;12094338;28;20044;-78
2021/08/20 14:24:10;;;;;;;2.15;1.90;;;27.70;71.40;;;;;;12095692;28;20055;-83
2021/08/20 14:29:58;;;;;;;1.98;1.73;;;27.90;71.50;;;;;;12090825;28;20572;-79
2021/08/20 14:35:45;;;;;;;2.75;1.90;;;28.00;71.20;;;;;;12097751;28;20044;-77
2021/08/20 14:41:32;;;;;;;3.13;1.98;;;28.10;71.90;;;;;;12091581;28;20641;-77
2021/08/20 14:47:23;;;;;;;5.68;1.90;;;28.10;71.30;;;;;;12091692;28;20096;-78
2021/08/20 14:53:14;;;;;;;5.68;1.80;;;28.10;68.70;;;;;;12098946;28;20051;-78
2021/08/20 14:59:01;;;;;;;4.82;2.05;;;27.50;70.50;;;;;;12074865;28;20055;-77
2021/08/20 15:04:49;;;;;;;3.38;1.73;;;27.40;71.10;;;;;;12074761;28;20135;-76
2021/08/20 15:10:37;;;;;;;3.78;2.00;;;27.50;69.80;;;;;;12087946;28;20127;-77
2021/08/20 15:16:24;;;;;;;3.92;1.90;;;27.60;70.00;;;;;;12088659;28;20496;-76
2021/08/20 15:22:12;;;;;;;4.90;1.60;;;27.70;69.00;;;;;;12091962;28;20052;-77
2021/08/20 15:27:59;;;;;;;3.72;1.92;;;27.70;69.40;;;;;;12094516;28;20040;-78
2021/08/20 15:33:46;;;;;;;2.00;1.80;;;27.80;69.50;;;;;;12088725;28;20085;-77
2021/08/20 15:39:37;;;;;;;2.45;1.65;;;27.90;69.00;;;;;;12093159;28;20499;-77
2021/08/20 15:45:24;;;;;;;8.43;2.10;;;28.00;68.60;;;;;;12099545;28;20062;-79
2021/08/20 15:51:12;;;;;;;3.63;2.15;;;28.20;69.10;;;;;;12098412;28;20498;-79
2021/08/20 15:57:00;;;;;;;2.97;1.60;;;28.40;68.70;;;;;;12092650;28;20101;-78
2021/08/20 16:02:47;;;;;;;3.38;1.60;;;28.70;68.50;;;;;;12096938;28;20048;-78
2021/08/20 16:08:34;;;;;;;3.03;1.73;;;28.80;67.70;;;;;;12096523;28;20059;-78
2021/08/20 16:14:22;;;;;;;4.72;2.10;;;28.90;66.20;;;;;;12093447;28;20537;-78
2021/08/20 16:20:10;;;;;;;2.63;1.98;;;29.20;64.30;;;;;;12101616;28;20096;-77
2021/08/20 16:25:57;;;;;;;3.55;1.60;;;30.70;61.10;;;;;;12118674;28;20067;-79
2021/08/20 16:31:47;;;;;;;2.42;1.52;;;32.20;59.00;;;;;;12145064;28;20426;-78
2021/08/20 16:37:37;;;;;;;3.78;1.80;;;33.90;55.30;;;;;;12143659;28;20108;-79
2021/08/20 16:43:24;;;;;;;2.40;1.80;;;34.60;53.30;;;;;;12114491;28;20082;-76
2021/08/20 16:49:12;;;;;;;6.00;3.78;;;34.30;53.00;;;;;;12106877;28;20052;-78
2021/08/20 16:55:08;;;;;;;2.63;2.08;;;34.40;53.50;;;;;;12101093;28;20060;-78
2021/08/20 17:00:55;;;;;;;3.88;1.60;;;33.90;54.00;;;;;;12102854;28;20040;-79
2021/08/20 17:06:43;;;;;;;2.80;1.88;;;33.20;54.50;;;;;;12104888;28;20071;-79
2021/08/20 17:12:32;;;;;;;1.48;1.38;;;32.60;55.20;;;;;;12107974;28;20456;-79
2021/08/20 17:18:19;;;;;;;2.60;1.60;;;32.00;57.00;;;;;;12116069;28;20048;-79
2021/08/20 17:24:07;;;;;;;3.25;1.55;;;31.60;57.90;;;;;;12116077;28;20044;-78
2021/08/20 17:29:54;;;;;;;1.50;1.40;;;31.40;58.50;;;;;;12112121;28;20051;-79
2021/08/20 17:35:42;;;;;;;2.85;2.00;;;30.80;59.90;;;;;;12106782;28;20048;-79
2021/08/20 17:41:47;;;;;;;2.47;1.88;;;29.90;62.20;;;;;;12127966;28;20040;-78
2021/08/20 17:47:34;;;;;;;3.75;1.80;;;29.10;64.90;;;;;;12101290;28;20106;-80
2021/08/20 17:53:20;;;;;;;4.07;2.30;;;28.30;70.90;;;;;;12100086;28;20055;-80
2021/08/20 17:59:09;;;;;;;3.20;1.80;;;27.50;74.70;;;;;;12101243;28;20513;-79
2021/08/20 18:04:55;;;;;;;4.75;2.10;;;26.80;77.40;;;;;;12098720;28;20048;-78
2021/08/20 18:10:42;;;;;;;5.15;2.13;;;26.40;80.10;;;;;;12098294;28;20048;-79
2021/08/20 18:16:31;;;;;;;4.50;2.28;;;26.00;82.00;;;;;;12097774;28;20044;-79
2021/08/20 18:22:18;;;;;;;3.60;2.13;;;25.70;82.80;;;;;;12091342;28;20051;-79
2021/08/20 18:28:07;;;;;;;5.18;2.20;;;25.40;83.70;;;;;;12085500;28;20045;-79
2021/08/20 18:33:55;;;;;;;4.68;2.20;;;25.30;84.40;;;;;;12090830;28;20055;-79
2021/08/20 18:39:42;;;;;;;3.50;1.98;;;25.20;84.80;;;;;;12094764;28;20560;-79
2021/08/20 18:45:30;;;;;;;4.90;2.50;;;24.90;84.50;;;;;;12094000;28;20048;-79
2021/08/20 18:51:18;;;;;;;6.07;2.28;;;24.60;86.30;;;;;;12102931;28;20040;-79
2021/08/20 18:57:05;;;;;;;2.30;1.98;;;24.30;87.70;;;;;;12107009;28;20500;-77
2021/08/20 19:02:54;;;;;;;5.25;2.13;;;24.10;87.60;;;;;;12086418;28;20083;-77
2021/08/20 19:08:43;;;;;;;3.00;1.98;;;24.00;88.40;;;;;;12090474;28;20052;-76
2021/08/20 19:14:30;;;;;;;3.90;2.30;;;23.80;88.60;;;;;;12088064;28;20128;-78
2021/08/20 19:20:17;;;;;;;3.63;2.00;;;23.70;89.20;;;;;;12080692;28;20056;-77
2021/08/20 19:26:06;;;;;;;3.05;2.38;;;23.60;90.00;;;;;;12082094;28;20056;-78
2021/08/20 19:31:53;;;;;;;2.63;2.00;;;23.60;89.40;;;;;;12088469;28;20060;-77
2021/08/20 19:37:41;;;;;;;3.92;2.35;;;23.50;89.40;;;;;;12082897;28;20512;-77
2021/08/20 19:43:29;;;;;;;4.00;2.28;;;23.50;89.90;;;;;;12087310;28;20095;-77
2021/08/20 19:49:16;;;;;;;4.90;2.45;;;23.40;90.40;;;;;;12095885;28;20056;-78
2021/08/20 19:55:04;;;;;;;3.63;2.10;;;23.40;89.90;;;;;;12092727;28;20186;-77
2021/08/20 20:00:53;;;;;;;4.50;2.78;;;23.30;90.30;;;;;;12083588;28;20056;-77
2021/08/20 20:06:40;;;;;;;3.10;2.20;;;23.30;90.30;;;;;;12085740;28;20044;-77
2021/08/20 20:12:27;;;;;;;5.65;2.60;;;23.20;90.40;;;;;;12086773;28;20052;-76
2021/08/20 20:18:15;;;;;;;4.65;2.30;;;23.10;90.40;;;;;;12094534;28;20541;-81
2021/08/20 20:24:02;;;;;;;3.58;2.20;;;23.10;90.30;;;;;;12097870;28;20048;-81
2021/08/20 20:29:50;;;;;;;4.53;2.38;;;22.90;90.60;;;;;;12099921;28;20075;-83
2021/08/20 20:35:38;;;;;;;3.88;2.60;;;22.80;90.80;;;;;;12101560;28;20148;-82
2021/08/20 20:41:25;;;;;;;2.97;2.03;;;22.80;91.00;;;;;;12098230;28;20052;-82
2021/08/20 20:47:12;;;;;;;6.10;2.72;;;22.80;90.90;;;;;;12068174;28;20063;-77
2021/08/20 20:53:01;;;;;;;7.13;3.75;;;22.70;91.30;;;;;;12086102;28;20057;-77
2021/08/20 20:58:49;;;;;;;4.55;2.83;;;22.70;91.10;;;;;;12087054;28;20092;-78
2021/08/20 21:04:36;;;;;;;4.57;2.90;;;22.70;91.20;;;;;;12087708;28;20063;-77
2021/08/20 21:10:25;;;;;;;5.35;3.33;;;22.70;91.50;;;;;;12086829;28;20044;-78
2021/08/20 21:16:12;;;;;;;6.00;3.15;;;22.70;91.40;;;;;;12089056;28;20056;-77
2021/08/20 21:22:00;;;;;;;5.22;2.88;;;22.60;91.40;;;;;;12095031;28;20705;-75
2021/08/20 21:27:49;;;;;;;4.13;2.58;;;22.60;91.60;;;;;;12090548;28;20495;-78
2021/08/20 21:33:36;;;;;;;5.97;3.00;;;22.50;91.70;;;;;;12087142;28;20051;-76
2021/08/20 21:39:22;;;;;;;4.90;2.47;;;22.40;91.70;;;;;;12088588;28;20048;-77
2021/08/20 21:45:11;;;;;;;6.38;3.25;;;22.40;91.80;;;;;;12093412;28;20056;-76
2021/08/20 21:50:58;;;;;;;5.57;3.25;;;22.40;91.90;;;;;;12093107;28;20052;-80
2021/08/20 21:56:45;;;;;;;4.35;2.80;;;22.40;91.90;;;;;;12098062;28;20059;-78
2021/08/20 22:02:41;;;;;;;3.30;2.60;;;22.40;91.90;;;;;;12097969;28;20491;-78
2021/08/20 22:08:31;;;;;;;5.00;3.20;;;22.30;92.00;;;;;;12097558;28;20072;-78
2021/08/20 22:14:18;;;;;;;3.33;2.70;;;22.20;92.00;;;;;;12096193;28;20059;-78
2021/08/20 22:20:08;;;;;;;10.48;3.03;;;22.20;92.10;;;;;;12092657;28;20063;-78
2021/08/20 22:25:55;;;;;;;2.58;2.28;;;22.10;92.10;;;;;;12098267;28;20056;-78
2021/08/20 22:31:44;;;;;;;4.85;2.75;;;22.00;92.40;;;;;;12095523;28;21228;-78
2021/08/20 22:37:32;;;;;;;3.03;2.38;;;21.90;92.40;;;;;;12093361;28;20045;-78
2021/08/20 22:43:19;;;;;;;11.73;3.42;;;21.80;92.50;;;;;;12096924;28;20139;-78
2021/08/20 22:49:06;;;;;;;4.38;2.88;;;21.90;92.40;;;;;;12092346;28;20040;-79
2021/08/20 22:54:54;;;;;;;5.00;2.60;;;21.80;92.40;;;;;;12095602;28;20059;-79
2021/08/20 23:00:42;;;;;;;4.40;2.80;;;21.70;92.80;;;;;;12097268;28;20049;-78
2021/08/20 23:06:29;;;;;;;2.95;2.50;;;21.70;92.90;;;;;;12097980;28;20204;-78
2021/08/20 23:12:17;;;;;;;5.10;2.63;;;21.60;92.80;;;;;;12099676;28;20901;-81
2021/08/20 23:18:04;;;;;;;6.63;2.88;;;21.60;92.60;;;;;;12106634;28;20512;-81
2021/08/20 23:23:51;;;;;;;6.88;2.85;;;21.60;92.70;;;;;;12102718;28;20131;-81
2021/08/20 23:29:39;;;;;;;17.42;10.88;;;21.60;92.90;;;;;;12095794;28;20040;-81
2021/08/20 23:35:26;;;;;;;10.07;3.10;;;21.60;92.70;;;;;;12094621;28;20056;-82
